createdAt,value
2018-07-05T00:02:20.749Z,10.17
2018-07-05T00:05:00.525Z,10.57
2018-07-05T00:07:40.130Z,10.70
2018-07-05T00:10:19.918Z,10.50
2018-07-05T00:12:59.789Z,10.33
2018-07-05T00:15:39.528Z,10.53
2018-07-05T00:18:19.215Z,10.50
2018-07-05T00:20:58.949Z,10.10
2018-07-05T00:23:38.804Z,10.87
2018-07-05T00:26:19.151Z,10.50
2018-07-05T00:28:58.797Z,10.30
2018-07-05T00:31:38.496Z,10.13
2018-07-05T00:34:18.185Z,10.13
2018-07-05T00:36:57.981Z,10.80
2018-07-05T00:39:37.865Z,9.60
2018-07-05T00:42:17.637Z,10.00
2018-07-05T00:44:57.434Z,10.10
2018-07-05T00:47:37.276Z,10.77
2018-07-05T00:50:16.965Z,10.53
2018-07-05T00:52:56.677Z,11.50
2018-07-05T00:55:36.473Z,11.03
2018-07-05T00:58:16.294Z,11.40
2018-07-05T01:00:56.106Z,11.87
2018-07-05T01:03:35.848Z,11.70
2018-07-05T01:06:15.797Z,11.77
2018-07-05T01:08:55.538Z,12.17
2018-07-05T01:11:35.221Z,11.77
2018-07-05T01:14:15.083Z,11.30
2018-07-05T01:16:54.830Z,12.53
2018-07-05T01:19:34.589Z,14.97
2018-07-05T01:22:14.381Z,12.77
2018-07-05T01:24:53.989Z,12.57
2018-07-05T01:27:36.992Z,12.40
2018-07-05T01:30:17.997Z,13.00
2018-07-05T01:32:57.872Z,12.70
2018-07-05T01:35:37.923Z,12.63
2018-07-05T01:38:17.709Z,12.83
2018-07-05T01:40:57.357Z,12.87
2018-07-05T01:43:37.134Z,12.83
2018-07-05T01:46:16.772Z,13.13
2018-07-05T01:48:56.473Z,14.00
2018-07-05T01:51:36.289Z,13.27
2018-07-05T01:54:16.196Z,13.27
2018-07-05T01:56:55.920Z,13.40
2018-07-05T01:59:35.907Z,12.33
2018-07-05T02:02:15.557Z,16.03
2018-07-05T02:04:55.446Z,13.93
2018-07-05T02:07:35.113Z,13.10
2018-07-05T02:10:14.977Z,13.20
2018-07-05T02:12:54.709Z,13.37
2018-07-05T02:15:34.356Z,13.40
2018-07-05T02:18:14.179Z,13.43
2018-07-05T02:20:53.869Z,13.43
2018-07-05T02:23:33.829Z,15.60
2018-07-05T02:26:13.602Z,13.77
2018-07-05T02:28:53.317Z,13.43
2018-07-05T02:31:33.151Z,13.10
2018-07-05T02:34:12.849Z,13.43
2018-07-05T02:36:52.665Z,15.33
2018-07-05T02:39:37.789Z,14.63
2018-07-05T02:42:17.565Z,15.87
2018-07-05T02:44:57.213Z,15.63
2018-07-05T02:47:36.909Z,15.33
2018-07-05T02:50:16.748Z,14.83
2018-07-05T02:52:56.561Z,13.47
2018-07-05T02:55:36.350Z,14.80
2018-07-05T02:58:16.069Z,17.37
2018-07-05T03:00:55.861Z,16.30
2018-07-05T03:03:35.807Z,16.27
2018-07-05T03:06:15.554Z,14.70
2018-07-05T03:08:55.262Z,14.97
2018-07-05T03:11:35.037Z,15.03
2018-07-05T03:14:14.781Z,16.80
2018-07-05T03:16:54.418Z,14.97
2018-07-05T03:19:34.169Z,15.43
2018-07-05T03:22:13.821Z,16.20
2018-07-05T03:24:53.606Z,16.17
2018-07-05T03:27:33.458Z,15.63
2018-07-05T03:30:13.112Z,16.20
2018-07-05T03:32:52.663Z,17.47
2018-07-05T03:35:34.341Z,16.47
2018-07-05T03:38:14.101Z,15.47
2018-07-05T03:40:58.217Z,15.80
2018-07-05T03:43:38.933Z,15.67
2018-07-05T03:46:18.733Z,21.43
2018-07-05T03:48:58.257Z,20.53
2018-07-05T03:51:38.136Z,19.83
2018-07-05T03:54:17.881Z,18.33
2018-07-05T03:56:57.581Z,19.07
2018-07-05T03:59:37.321Z,22.80
2018-07-05T04:02:17.021Z,20.23
2018-07-05T04:04:56.773Z,21.30
2018-07-05T04:07:36.553Z,17.50
2018-07-05T04:10:16.225Z,17.37
2018-07-05T04:12:55.962Z,17.37
2018-07-05T04:15:35.649Z,19.37
2018-07-05T04:18:15.457Z,21.37
2018-07-05T04:20:55.180Z,16.50
2018-07-05T04:23:34.929Z,15.23
2018-07-05T04:26:14.601Z,14.93
2018-07-05T04:28:54.396Z,16.87
2018-07-05T04:31:34.149Z,15.37
2018-07-05T04:34:13.970Z,16.20
2018-07-05T04:36:53.597Z,15.00
2018-07-05T04:39:33.349Z,13.70
2018-07-05T04:42:12.964Z,14.63
2018-07-05T04:44:52.591Z,15.13
2018-07-05T04:47:32.219Z,15.70
2018-07-05T04:50:12.037Z,14.30
2018-07-05T04:52:52.505Z,16.17
2018-07-05T04:55:32.255Z,15.50
2018-07-05T04:58:12.929Z,17.17
2018-07-05T05:00:52.668Z,17.30
2018-07-05T05:03:32.462Z,16.70
2018-07-05T05:06:12.185Z,15.97
2018-07-05T05:08:51.913Z,20.40
2018-07-05T05:11:31.670Z,17.70
2018-07-05T05:14:11.568Z,15.63
2018-07-05T05:16:51.216Z,16.47
2018-07-05T05:19:30.881Z,15.97
2018-07-05T05:22:10.653Z,15.77
2018-07-05T05:24:50.467Z,16.53
2018-07-05T05:27:30.244Z,15.27
2018-07-05T05:30:09.969Z,16.77
2018-07-05T05:32:49.806Z,16.43
2018-07-05T05:35:29.457Z,18.00
2018-07-05T05:38:09.273Z,17.97
2018-07-05T05:40:49.087Z,17.03
2018-07-05T05:43:28.909Z,17.87
2018-07-05T05:46:08.721Z,18.10
2018-07-05T05:48:48.419Z,17.23
2018-07-05T05:51:28.143Z,16.97
2018-07-05T05:54:08.209Z,16.20
2018-07-05T05:56:48.302Z,17.40
2018-07-05T05:59:28.244Z,17.80
2018-07-05T06:02:08.151Z,17.07
2018-07-05T06:04:47.848Z,19.10
2018-07-05T06:07:28.169Z,18.00
2018-07-05T06:10:07.969Z,18.17
2018-07-05T06:12:42.561Z,20.97
2018-07-05T06:15:22.237Z,19.20
2018-07-05T06:18:02.043Z,19.20
2018-07-05T06:20:41.834Z,20.47
2018-07-05T06:23:21.528Z,19.70
2018-07-05T06:25:55.296Z,20.40
2018-07-05T06:28:35.208Z,19.57
2018-07-05T06:31:08.837Z,19.23
2018-07-05T06:33:48.812Z,18.60
2018-07-05T06:36:28.513Z,20.63
2018-07-05T06:39:08.725Z,19.60
2018-07-05T06:41:49.258Z,20.97
2018-07-05T06:44:29.146Z,17.90
2018-07-05T06:47:08.877Z,19.87
2018-07-05T06:49:48.572Z,19.63
2018-07-05T06:52:28.443Z,20.47
2018-07-05T06:55:08.097Z,19.70
2018-07-05T06:57:47.873Z,21.40
2018-07-05T07:00:27.669Z,21.70
2018-07-05T07:03:07.402Z,22.40
2018-07-05T07:05:47.065Z,21.20
2018-07-05T07:08:26.957Z,21.47
2018-07-05T07:11:06.829Z,22.60
2018-07-05T07:13:46.542Z,22.43
2018-07-05T07:16:26.303Z,23.40
2018-07-05T07:19:06.146Z,21.57
2018-07-05T07:21:46.041Z,22.70
2018-07-05T07:24:25.717Z,22.07
2018-07-05T07:27:05.549Z,22.67
2018-07-05T07:29:45.209Z,19.83
2018-07-05T07:32:24.993Z,24.00
2018-07-05T07:35:04.856Z,24.83
2018-07-05T07:37:44.707Z,23.73
2018-07-05T07:40:24.397Z,22.87
2018-07-05T07:42:51.766Z,25.33
2018-07-05T07:45:19.140Z,26.63
2018-07-05T07:47:46.574Z,24.87
2018-07-05T07:50:13.963Z,27.53
2018-07-05T07:52:41.317Z,25.60
2018-07-05T07:55:09.016Z,25.97
2018-07-05T07:57:36.368Z,25.90
2018-07-05T08:00:03.729Z,27.67
2018-07-05T08:02:31.105Z,27.53
2018-07-05T08:04:58.484Z,26.70
2018-07-05T08:07:25.845Z,27.07
2018-07-05T08:09:53.226Z,27.90
2018-07-05T08:12:20.586Z,29.07
2018-07-05T08:14:47.945Z,26.17
2018-07-05T08:17:15.338Z,26.97
2018-07-05T08:19:42.719Z,27.23
2018-07-05T08:22:10.075Z,26.97
2018-07-05T08:24:37.449Z,26.70
2018-07-05T08:27:04.806Z,27.27
2018-07-05T08:29:32.513Z,27.70
2018-07-05T08:31:59.873Z,28.90
2018-07-05T08:34:27.277Z,25.50
2018-07-05T08:36:54.621Z,27.90
2018-07-05T08:39:22.005Z,26.43
2018-07-05T08:41:49.366Z,25.67
2018-07-05T08:44:16.750Z,27.43
2018-07-05T08:46:44.109Z,27.43
2018-07-05T08:49:11.490Z,28.00
2018-07-05T08:51:38.857Z,27.50
2018-07-05T08:54:06.240Z,27.97
2018-07-05T08:56:33.629Z,27.57
2018-07-05T08:59:01.037Z,25.43
2018-07-05T09:01:28.401Z,28.03
2018-07-05T09:03:55.762Z,31.03
2018-07-05T09:06:23.151Z,30.27
2018-07-05T09:08:50.514Z,27.63
2018-07-05T09:11:17.909Z,29.93
2018-07-05T09:13:45.268Z,30.17
2018-07-05T09:16:12.651Z,28.10
2018-07-05T09:18:40.010Z,29.23
2018-07-05T09:21:07.418Z,31.57
2018-07-05T09:23:34.795Z,28.17
2018-07-05T09:26:02.186Z,30.97
2018-07-05T09:28:29.597Z,28.03
2018-07-05T09:30:56.961Z,32.80
2018-07-05T09:33:24.352Z,29.17
2018-07-05T09:35:51.713Z,30.03
2018-07-05T09:38:19.102Z,29.37
2018-07-05T09:40:46.465Z,32.53
2018-07-05T09:43:13.845Z,31.00
2018-07-05T09:45:41.698Z,33.23
2018-07-05T09:48:09.053Z,36.03
2018-07-05T09:50:36.440Z,35.77
2018-07-05T09:53:03.785Z,37.60
2018-07-05T09:55:31.177Z,35.78
2018-07-05T09:57:58.580Z,32.78
2018-07-05T10:00:31.153Z,29.77
2018-07-05T10:02:58.525Z,30.65
2018-07-05T10:05:25.926Z,27.15
2018-07-05T10:07:53.284Z,28.75
2018-07-05T10:10:20.642Z,28.35
2018-07-05T10:12:48.072Z,27.32
2018-07-05T10:15:15.432Z,26.27
2018-07-05T10:17:42.805Z,25.82
2018-07-05T10:20:10.175Z,26.17
2018-07-05T10:22:37.578Z,27.30
2018-07-05T10:25:04.965Z,26.60
2018-07-05T10:27:32.367Z,26.87
2018-07-05T10:30:12.184Z,26.62
2018-07-05T10:32:52.123Z,28.12
2018-07-05T10:35:19.466Z,27.87
2018-07-05T10:37:46.825Z,29.45
2018-07-05T10:40:26.641Z,29.12
2018-07-05T10:43:06.495Z,30.17
2018-07-05T10:45:46.102Z,29.42
2018-07-05T10:48:25.988Z,27.75
2018-07-05T10:51:05.707Z,25.15
2018-07-05T10:53:45.493Z,22.82
2018-07-05T10:56:25.203Z,23.05
2018-07-05T10:59:04.943Z,22.32
2018-07-05T11:01:44.723Z,22.40
2018-07-05T11:04:24.616Z,21.35
2018-07-05T11:07:04.322Z,20.97
2018-07-05T11:09:44.176Z,20.72
2018-07-05T11:12:23.865Z,20.92
2018-07-05T11:15:03.609Z,21.45
2018-07-05T11:17:43.329Z,18.37
2018-07-05T11:20:22.985Z,19.45
2018-07-05T11:23:02.632Z,18.70
2018-07-05T11:25:42.405Z,19.50
2018-07-05T11:28:22.320Z,22.20
2018-07-05T11:31:02.081Z,21.10
2018-07-05T11:33:41.908Z,21.70
2018-07-05T11:36:21.745Z,20.97
2018-07-05T11:39:01.482Z,22.20
2018-07-05T11:41:41.301Z,22.35
2018-07-05T11:44:21.073Z,20.57
2018-07-05T11:47:00.925Z,20.52
2018-07-05T11:49:40.514Z,23.80
2018-07-05T11:52:20.343Z,23.60
2018-07-05T11:55:00.165Z,22.48
2018-07-05T11:57:39.908Z,22.95
2018-07-05T12:00:19.541Z,22.30
2018-07-05T12:02:59.266Z,22.95
2018-07-05T12:05:39.077Z,22.27
2018-07-05T12:08:18.844Z,20.52
2018-07-05T12:10:58.634Z,19.62
2018-07-05T12:13:40.305Z,18.05
2018-07-05T12:16:20.133Z,17.92
2018-07-05T12:18:59.780Z,18.40
2018-07-05T12:21:39.550Z,19.60
2018-07-05T12:24:19.147Z,19.40
2018-07-05T12:26:58.911Z,17.40
2018-07-05T12:29:38.633Z,18.87
2018-07-05T12:32:18.219Z,19.35
2018-07-05T12:34:57.941Z,19.27
2018-07-05T12:37:37.722Z,18.62
2018-07-05T12:40:17.522Z,18.00
2018-07-05T12:42:57.329Z,18.12
2018-07-05T12:45:37.138Z,18.32
2018-07-05T12:48:16.877Z,16.93
2018-07-05T12:50:56.550Z,16.67
2018-07-05T12:53:36.285Z,15.72
2018-07-05T12:56:15.913Z,15.28
2018-07-05T12:58:55.736Z,14.00
2018-07-05T13:01:35.664Z,13.98
2018-07-05T13:04:15.426Z,12.23
2018-07-05T13:06:55.064Z,11.83
2018-07-05T13:09:35.008Z,11.55
2018-07-05T13:12:14.693Z,11.93
2018-07-05T13:14:54.576Z,11.28
2018-07-05T13:17:34.281Z,11.43
2018-07-05T13:20:14.197Z,10.65
2018-07-05T13:22:53.993Z,10.88
2018-07-05T13:25:33.902Z,10.90
2018-07-05T13:28:13.598Z,10.65
2018-07-05T13:30:53.394Z,11.35
2018-07-05T13:33:33.180Z,10.75
2018-07-05T13:36:12.866Z,11.63
2018-07-05T13:38:52.621Z,10.25
2018-07-05T13:41:32.381Z,9.95
2018-07-05T13:44:12.034Z,10.45
2018-07-05T13:46:51.781Z,9.85
2018-07-05T13:49:31.433Z,9.73
2018-07-05T13:52:11.398Z,10.65
2018-07-05T13:54:51.402Z,9.88
2018-07-05T13:57:31.239Z,9.63
2018-07-05T14:00:11.021Z,10.30
2018-07-05T14:02:50.681Z,10.38
2018-07-05T14:05:30.409Z,10.98
2018-07-05T14:08:10.222Z,11.83
2018-07-05T14:10:50.009Z,10.93
2018-07-05T14:13:29.705Z,10.90
2018-07-05T14:16:09.430Z,10.03
2018-07-05T14:18:49.225Z,9.58
2018-07-05T14:21:29.004Z,9.03
2018-07-05T14:24:09.040Z,9.23
2018-07-05T14:26:48.915Z,9.75
2018-07-05T14:29:28.583Z,9.55
2018-07-05T14:32:08.296Z,9.50
2018-07-05T14:34:47.993Z,9.48
2018-07-05T14:37:27.801Z,9.13
2018-07-05T14:40:07.525Z,8.90
2018-07-05T14:42:47.162Z,8.88
2018-07-05T14:45:27.034Z,8.75
2018-07-05T14:48:07.053Z,8.90
2018-07-05T14:50:46.749Z,8.80
2018-07-05T14:53:26.529Z,8.70
2018-07-05T14:56:06.249Z,8.15
2018-07-05T14:58:46.016Z,8.28
2018-07-05T15:01:26.054Z,9.18
2018-07-05T15:04:05.752Z,8.50
2018-07-05T15:06:45.608Z,8.88
2018-07-05T15:09:25.434Z,8.80
2018-07-05T15:12:05.349Z,9.48
2018-07-05T15:14:44.963Z,9.25
2018-07-05T15:17:24.680Z,9.68
2018-07-05T15:20:04.377Z,9.88
2018-07-05T15:22:44.041Z,9.53
2018-07-05T15:25:23.881Z,9.35
2018-07-05T15:28:03.624Z,8.80
2018-07-05T15:30:43.484Z,8.70
2018-07-05T15:33:23.449Z,8.15
2018-07-05T15:36:03.156Z,7.92
2018-07-05T15:38:42.945Z,8.23
2018-07-05T15:41:22.661Z,7.75
2018-07-05T15:44:02.421Z,7.35
2018-07-05T15:46:42.178Z,7.50
2018-07-05T15:49:21.965Z,7.45
2018-07-05T15:52:01.817Z,7.53
2018-07-05T15:54:41.507Z,7.58
2018-07-05T15:57:21.213Z,7.17
2018-07-05T16:00:00.980Z,7.47
2018-07-05T16:02:40.642Z,7.30
2018-07-05T16:05:20.410Z,7.67
2018-07-05T16:08:00.201Z,7.60
2018-07-05T16:10:39.998Z,7.95
2018-07-05T16:13:19.834Z,7.33
2018-07-05T16:15:59.734Z,7.20
2018-07-05T16:18:39.567Z,7.37
2018-07-05T16:21:13.337Z,7.60
2018-07-05T16:23:53.274Z,7.50
2018-07-05T16:26:33.043Z,7.50
2018-07-05T16:29:12.762Z,7.53
2018-07-05T16:31:52.448Z,7.78
2018-07-05T16:34:32.364Z,7.37
2018-07-05T16:37:12.210Z,7.58
2018-07-05T16:39:51.844Z,7.40
2018-07-05T16:42:31.594Z,7.17
2018-07-05T16:45:11.308Z,7.60
2018-07-05T16:47:51.045Z,7.60
2018-07-05T16:50:30.826Z,7.62
2018-07-05T16:53:10.753Z,7.55
2018-07-05T16:55:50.273Z,6.85
2018-07-05T16:58:30.041Z,7.50
2018-07-05T17:01:09.790Z,7.67
2018-07-05T17:03:49.493Z,7.37
2018-07-05T17:06:29.379Z,7.37
2018-07-05T17:09:09.188Z,7.40
2018-07-05T17:11:49.053Z,7.55
2018-07-05T17:14:28.683Z,7.58
2018-07-05T17:17:08.607Z,7.55
2018-07-05T17:19:48.250Z,7.83
2018-07-05T17:22:27.861Z,8.05
2018-07-05T17:25:07.781Z,8.63
2018-07-05T17:27:47.615Z,7.80
2018-07-05T17:30:27.241Z,7.65
2018-07-05T17:33:06.914Z,7.92
2018-07-05T17:35:50.401Z,7.55
2018-07-05T17:38:30.120Z,7.30
2018-07-05T17:41:10.065Z,7.37
2018-07-05T17:43:49.853Z,7.90
2018-07-05T17:46:29.497Z,9.13
2018-07-05T17:49:09.309Z,8.38
2018-07-05T17:51:49.026Z,8.10
2018-07-05T17:54:28.649Z,7.37
2018-07-05T17:57:08.317Z,8.03
2018-07-05T17:59:48.133Z,7.47
2018-07-05T18:02:27.948Z,7.90
2018-07-05T18:05:07.678Z,7.75
2018-07-05T18:07:47.397Z,7.75
2018-07-05T18:10:27.065Z,8.28
2018-07-05T18:13:06.780Z,7.62
2018-07-05T18:15:46.633Z,7.35
2018-07-05T18:18:26.705Z,7.90
2018-07-05T18:21:06.433Z,8.58
2018-07-05T18:23:47.196Z,8.03
2018-07-05T18:26:27.180Z,7.60
2018-07-05T18:29:06.801Z,8.20
2018-07-05T18:31:46.509Z,8.60
2018-07-05T18:34:26.477Z,8.45
2018-07-05T18:37:06.190Z,8.63
2018-07-05T18:39:45.976Z,8.90
2018-07-05T18:42:25.845Z,8.33
2018-07-05T18:45:05.555Z,8.73
2018-07-05T18:47:45.253Z,7.97
2018-07-05T18:50:25.045Z,8.17
2018-07-05T18:53:04.770Z,7.97
2018-07-05T18:55:44.621Z,8.30
2018-07-05T18:58:24.252Z,8.17
2018-07-05T19:01:04.124Z,8.67
2018-07-05T19:03:43.957Z,8.90
2018-07-05T19:06:23.557Z,8.37
2018-07-05T19:09:03.416Z,7.77
2018-07-05T19:11:43.288Z,8.83
2018-07-05T19:14:23.021Z,7.93
2018-07-05T19:17:02.781Z,7.80
2018-07-05T19:19:42.373Z,7.87
2018-07-05T19:22:22.185Z,7.93
2018-07-05T19:25:02.153Z,7.60
2018-07-05T19:27:41.904Z,7.80
2018-07-05T19:30:21.597Z,7.90
2018-07-05T19:33:01.417Z,7.67
2018-07-05T19:35:41.260Z,7.53
2018-07-05T19:38:21.025Z,8.07
2018-07-05T19:41:00.758Z,7.70
2018-07-05T19:43:40.328Z,7.53
2018-07-05T19:46:20.170Z,7.70
2018-07-05T19:48:59.982Z,7.60
2018-07-05T19:51:39.669Z,8.00
2018-07-05T19:54:19.369Z,7.37
2018-07-05T19:56:59.021Z,7.90
2018-07-05T19:59:38.901Z,6.97
2018-07-05T20:02:18.772Z,7.57
2018-07-05T20:04:58.611Z,7.20
2018-07-05T20:07:38.577Z,6.90
2018-07-05T20:10:18.337Z,7.17
2018-07-05T20:12:58.037Z,6.90
2018-07-05T20:15:37.820Z,7.17
2018-07-05T20:18:17.366Z,7.70
2018-07-05T20:20:57.243Z,7.13
2018-07-05T20:23:37.020Z,7.20
2018-07-05T20:26:16.637Z,7.20
2018-07-05T20:28:56.369Z,6.77
2018-07-05T20:31:36.305Z,7.27
2018-07-05T20:34:16.180Z,6.07
2018-07-05T20:36:55.821Z,6.50
2018-07-05T20:39:35.655Z,6.00
2018-07-05T20:42:15.570Z,6.43
2018-07-05T20:44:55.293Z,6.07
2018-07-05T20:47:34.978Z,6.23
2018-07-05T20:50:14.698Z,6.50
2018-07-05T20:52:54.717Z,6.50
2018-07-05T20:55:34.436Z,5.73
2018-07-05T20:58:14.341Z,6.17
2018-07-05T21:00:54.112Z,6.03
2018-07-05T21:03:34.043Z,6.07
2018-07-05T21:06:13.843Z,6.13
2018-07-05T21:08:53.737Z,6.10
2018-07-05T21:11:33.477Z,6.47
2018-07-05T21:14:13.312Z,6.23
2018-07-05T21:16:53.014Z,5.90
2018-07-05T21:19:32.721Z,6.13
2018-07-05T21:22:12.409Z,6.43
2018-07-05T21:24:52.175Z,6.60
2018-07-05T21:27:31.844Z,6.20
2018-07-05T21:30:11.751Z,6.70
2018-07-05T21:32:51.616Z,6.70
2018-07-05T21:35:31.238Z,6.50
2018-07-05T21:38:10.837Z,6.63
2018-07-05T21:40:50.631Z,6.50
2018-07-05T21:43:30.321Z,6.93
2018-07-05T21:46:10.089Z,6.80
2018-07-05T21:48:49.748Z,6.53
2018-07-05T21:51:29.396Z,6.47
2018-07-05T21:54:09.303Z,6.67
2018-07-05T21:56:49.121Z,6.30
2018-07-05T21:59:28.888Z,6.30
2018-07-05T22:02:08.635Z,6.40
2018-07-05T22:04:48.353Z,6.63
2018-07-05T22:07:28.145Z,6.97
2018-07-05T22:10:07.736Z,6.60
2018-07-05T22:12:47.449Z,6.50
2018-07-05T22:15:27.176Z,6.60
2018-07-05T22:18:06.481Z,6.73
2018-07-05T22:20:51.790Z,6.87
2018-07-05T22:23:36.898Z,7.27
2018-07-05T22:26:22.094Z,6.60
2018-07-05T22:29:07.442Z,7.00
2018-07-05T22:31:51.389Z,6.97
2018-07-05T22:34:31.149Z,6.90
2018-07-05T22:37:10.797Z,7.17
2018-07-05T22:39:50.581Z,6.93
2018-07-05T22:42:30.292Z,7.73
2018-07-05T22:45:09.856Z,7.57
2018-07-05T22:47:49.577Z,7.63
2018-07-05T22:50:29.085Z,7.30
2018-07-05T22:53:08.809Z,7.90
2018-07-05T22:55:48.594Z,7.40
2018-07-05T22:58:28.401Z,7.50
2018-07-05T23:01:08.089Z,7.33
2018-07-05T23:03:47.852Z,8.17
2018-07-05T23:06:27.701Z,7.50
2018-07-05T23:09:07.437Z,7.57
2018-07-05T23:11:47.265Z,7.17
2018-07-05T23:14:27.104Z,8.13
2018-07-05T23:17:06.933Z,7.13
2018-07-05T23:19:46.554Z,8.27
2018-07-05T23:22:26.420Z,7.90
2018-07-05T23:25:06.640Z,8.63
2018-07-05T23:27:46.698Z,8.37
2018-07-05T23:30:26.445Z,7.83
2018-07-05T23:33:00.156Z,8.47
2018-07-05T23:35:39.829Z,8.47
2018-07-05T23:38:19.456Z,8.33
2018-07-05T23:40:59.169Z,7.80
2018-07-05T23:43:39.036Z,7.90
2018-07-05T23:46:18.673Z,8.07
2018-07-05T23:48:58.561Z,8.03
2018-07-05T23:51:38.361Z,8.27
2018-07-05T23:54:18.354Z,8.73
2018-07-05T23:56:58.335Z,9.13
2018-07-05T23:59:38.013Z,8.13
